createdAt,value
2022-10-04T00:02:20.186Z,5.60
2022-10-04T00:05:16.458Z,5.23
2022-10-04T00:07:56.982Z,3.83
2022-10-04T00:10:34.067Z,6.00
2022-10-04T00:13:16.511Z,6.30
2022-10-04T00:15:51.341Z,5.90
2022-10-04T00:18:31.765Z,6.00
2022-10-04T00:21:02.940Z,5.07
2022-10-04T00:23:42.346Z,4.70
2022-10-04T00:26:29.055Z,5.93
2022-10-04T00:29:25.490Z,4.83
2022-10-04T00:32:16.846Z,6.00
2022-10-04T00:34:54.298Z,5.03
2022-10-04T00:37:29.074Z,5.03
2022-10-04T00:40:02.877Z,5.87
2022-10-04T00:42:46.879Z,4.73
2022-10-04T00:45:25.639Z,4.40
2022-10-04T00:48:09.994Z,4.70
2022-10-04T00:50:44.578Z,4.67
2022-10-04T00:53:23.032Z,4.37
2022-10-04T00:56:02.723Z,4.50
2022-10-04T00:58:36.639Z,4.00
2022-10-04T01:01:06.277Z,4.57
2022-10-04T01:03:38.927Z,4.83
2022-10-04T01:06:11.416Z,5.57
2022-10-04T01:08:49.109Z,6.53
2022-10-04T01:11:29.509Z,3.93
2022-10-04T01:14:13.307Z,4.67
2022-10-04T01:16:52.744Z,3.87
2022-10-04T01:19:25.427Z,4.10
2022-10-04T01:22:11.826Z,4.60
2022-10-04T01:24:46.961Z,3.60
2022-10-04T01:27:47.639Z,3.77
2022-10-04T01:30:20.730Z,4.80
2022-10-04T01:32:52.248Z,5.50
2022-10-04T01:35:24.247Z,4.47
2022-10-04T01:37:52.681Z,4.57
2022-10-04T01:40:21.266Z,5.43
2022-10-04T01:42:55.688Z,5.93
2022-10-04T01:45:48.642Z,6.07
2022-10-04T01:48:25.877Z,4.00
2022-10-04T01:51:07.255Z,3.20
2022-10-04T01:53:59.143Z,4.27
2022-10-04T01:56:43.350Z,4.10
2022-10-04T01:59:42.025Z,3.60
2022-10-04T02:02:46.040Z,3.73
2022-10-04T02:05:21.437Z,3.87
2022-10-04T02:07:51.352Z,6.03
2022-10-04T02:10:30.865Z,4.17
2022-10-04T02:13:04.029Z,5.30
2022-10-04T02:15:40.316Z,4.33
2022-10-04T02:18:26.341Z,4.80
2022-10-04T02:20:59.017Z,5.43
2022-10-04T02:23:30.773Z,4.30
2022-10-04T02:25:59.774Z,4.90
2022-10-04T02:28:31.420Z,6.43
2022-10-04T02:31:38.702Z,6.00
2022-10-04T02:34:10.932Z,6.00
2022-10-04T02:36:42.997Z,5.93
2022-10-04T02:39:14.715Z,5.90
2022-10-04T02:41:49.380Z,6.40
2022-10-04T02:44:38.601Z,6.13
2022-10-04T02:47:19.523Z,5.93
2022-10-04T02:49:53.327Z,5.53
2022-10-04T02:52:33.227Z,5.80
2022-10-04T02:55:28.437Z,6.77
2022-10-04T02:57:59.118Z,5.57
2022-10-04T03:00:32.616Z,5.47
2022-10-04T03:03:24.292Z,5.63
2022-10-04T03:06:19.150Z,5.63
2022-10-04T03:08:52.281Z,5.50
2022-10-04T03:11:35.710Z,5.77
2022-10-04T03:14:10.800Z,5.83
2022-10-04T03:16:44.300Z,5.80
2022-10-04T03:19:16.458Z,5.80
2022-10-04T03:21:48.635Z,5.50
2022-10-04T03:24:23.058Z,6.00
2022-10-04T03:26:55.985Z,5.70
2022-10-04T03:29:27.972Z,4.80
2022-10-04T03:32:06.361Z,4.10
2022-10-04T03:34:44.780Z,4.70
2022-10-04T03:37:19.665Z,4.70
2022-10-04T03:39:58.129Z,4.60
2022-10-04T03:42:32.238Z,6.00
2022-10-04T03:45:20.537Z,6.07
2022-10-04T03:47:51.321Z,5.70
2022-10-04T03:50:26.309Z,5.97
2022-10-04T03:53:11.729Z,6.07
2022-10-04T03:55:49.258Z,5.73
2022-10-04T03:58:26.511Z,4.33
2022-10-04T04:01:14.355Z,5.10
2022-10-04T04:04:22.615Z,6.80
2022-10-04T04:07:14.396Z,5.00
2022-10-04T04:10:14.552Z,4.77
2022-10-04T04:13:02.342Z,6.30
2022-10-04T04:15:34.310Z,5.20
2022-10-04T04:18:12.069Z,7.10
2022-10-04T04:20:50.518Z,6.40
2022-10-04T04:23:38.567Z,6.43
2022-10-04T04:26:39.978Z,5.27
2022-10-04T04:30:02.258Z,5.53
2022-10-04T04:32:58.754Z,4.20
2022-10-04T04:35:39.051Z,6.80
2022-10-04T04:38:20.539Z,4.77
2022-10-04T04:40:51.597Z,3.97
2022-10-04T04:43:21.286Z,6.13
2022-10-04T04:46:08.510Z,4.87
2022-10-04T04:48:39.446Z,4.17
2022-10-04T04:51:26.421Z,5.37
2022-10-04T04:53:58.943Z,6.17
2022-10-04T04:56:34.038Z,5.70
2022-10-04T04:59:08.768Z,5.00
2022-10-04T05:01:50.602Z,5.80
2022-10-04T05:04:24.203Z,5.87
2022-10-04T05:07:17.428Z,5.40
2022-10-04T05:09:45.716Z,5.50
2022-10-04T05:12:17.489Z,4.87
2022-10-04T05:14:52.566Z,4.63
2022-10-04T05:17:32.955Z,5.27
2022-10-04T05:20:06.600Z,4.70
2022-10-04T05:22:42.378Z,5.33
2022-10-04T05:25:19.053Z,4.60
2022-10-04T05:27:47.094Z,6.23
2022-10-04T05:30:31.791Z,6.33
2022-10-04T05:33:10.490Z,6.30
2022-10-04T05:35:56.922Z,6.70
2022-10-04T05:38:52.182Z,9.43
2022-10-04T05:41:28.093Z,5.67
2022-10-04T05:44:05.313Z,5.63
2022-10-04T05:46:35.194Z,5.20
2022-10-04T05:49:16.709Z,5.70
2022-10-04T05:52:13.742Z,6.93
2022-10-04T05:54:43.896Z,7.33
2022-10-04T05:57:51.575Z,9.30
2022-10-04T06:00:46.670Z,11.60
2022-10-04T06:03:52.044Z,12.77
2022-10-04T06:06:30.868Z,8.60
2022-10-04T06:09:27.990Z,7.30
2022-10-04T06:12:12.257Z,8.60
2022-10-04T06:14:59.902Z,10.57
2022-10-04T06:17:42.280Z,5.90
2022-10-04T06:20:16.907Z,7.60
2022-10-04T06:22:48.081Z,8.60
2022-10-04T06:25:27.283Z,7.80
2022-10-04T06:28:26.138Z,4.90
2022-10-04T06:31:33.061Z,6.50
2022-10-04T06:34:35.358Z,5.10
2022-10-04T06:37:28.825Z,4.33
2022-10-04T06:40:36.232Z,4.53
2022-10-04T06:43:33.161Z,4.87
2022-10-04T06:46:37.755Z,4.60
2022-10-04T06:49:42.482Z,4.30
2022-10-04T06:52:50.101Z,3.80
2022-10-04T06:55:53.706Z,3.63
2022-10-04T06:59:21.886Z,3.73
2022-10-04T07:01:52.913Z,4.87
2022-10-04T07:04:27.348Z,5.17
2022-10-04T07:07:49.282Z,3.47
2022-10-04T07:10:37.730Z,4.43
2022-10-04T07:13:04.242Z,4.47
2022-10-04T07:15:45.220Z,4.77
2022-10-04T07:18:19.127Z,4.87
2022-10-04T07:20:49.001Z,6.17
2022-10-04T07:23:28.426Z,5.30
2022-10-04T07:26:08.209Z,6.00
2022-10-04T07:29:01.234Z,5.80
2022-10-04T07:31:34.570Z,5.50
2022-10-04T07:34:10.670Z,4.30
2022-10-04T07:36:57.476Z,5.60
2022-10-04T07:39:43.665Z,5.10
2022-10-04T07:42:36.626Z,5.03
2022-10-04T07:45:08.725Z,3.50
2022-10-04T07:47:35.570Z,4.40
2022-10-04T07:50:24.612Z,3.77
2022-10-04T07:53:21.095Z,5.50
2022-10-04T07:55:57.304Z,5.43
2022-10-04T07:58:45.989Z,6.30
2022-10-04T08:01:33.947Z,5.60
2022-10-04T08:04:32.672Z,6.13
2022-10-04T08:07:02.322Z,5.70
2022-10-04T08:09:36.325Z,5.40
2022-10-04T08:12:12.336Z,4.33
2022-10-04T08:15:16.997Z,4.13
2022-10-04T08:18:41.229Z,4.50
2022-10-04T08:21:14.177Z,4.40
2022-10-04T08:24:11.516Z,3.57
2022-10-04T08:27:22.210Z,4.03
2022-10-04T08:29:51.887Z,3.97
2022-10-04T08:32:23.530Z,3.70
2022-10-04T08:35:16.465Z,4.47
2022-10-04T08:38:02.456Z,4.87
2022-10-04T08:41:15.153Z,4.60
2022-10-04T08:44:13.362Z,4.43
2022-10-04T08:47:05.339Z,4.07
2022-10-04T08:50:24.325Z,4.10
2022-10-04T08:53:16.518Z,5.23
2022-10-04T08:56:10.815Z,4.53
2022-10-04T08:58:52.639Z,4.60
2022-10-04T09:01:42.042Z,3.60
2022-10-04T09:04:33.212Z,4.63
2022-10-04T09:07:12.010Z,4.20
2022-10-04T09:10:13.476Z,4.57
2022-10-04T09:12:57.616Z,5.17
2022-10-04T09:15:37.886Z,5.07
2022-10-04T09:18:32.836Z,4.80
2022-10-04T09:21:11.491Z,4.53
2022-10-04T09:23:38.063Z,6.27
2022-10-04T09:26:20.091Z,8.00
2022-10-04T09:29:03.915Z,5.97
2022-10-04T09:32:19.205Z,5.37
2022-10-04T09:35:06.349Z,4.70
2022-10-04T09:37:57.905Z,3.60
2022-10-04T09:40:53.958Z,4.23
2022-10-04T09:44:01.945Z,3.77
2022-10-04T09:46:56.168Z,5.80
2022-10-04T09:49:32.674Z,5.73
2022-10-04T09:52:17.616Z,5.47
2022-10-04T09:54:56.778Z,6.63
2022-10-04T09:58:08.015Z,6.37
2022-10-04T10:00:54.342Z,6.20
2022-10-04T10:03:53.685Z,4.77
2022-10-04T10:06:35.465Z,4.60
2022-10-04T10:09:11.185Z,4.33
2022-10-04T10:12:21.377Z,4.00
2022-10-04T10:14:47.988Z,3.70
2022-10-04T10:17:37.220Z,4.43
2022-10-04T10:20:23.153Z,4.67
2022-10-04T10:23:06.523Z,4.20
2022-10-04T10:26:08.115Z,4.80
2022-10-04T10:29:12.151Z,3.93
2022-10-04T10:31:54.443Z,4.00
2022-10-04T10:34:53.303Z,4.30
2022-10-04T10:37:53.999Z,5.03
2022-10-04T10:40:41.777Z,5.40
2022-10-04T10:43:15.392Z,4.10
2022-10-04T10:46:04.820Z,4.40
2022-10-04T10:49:06.922Z,4.33
2022-10-04T10:51:42.550Z,4.40
2022-10-04T10:54:34.124Z,3.23
2022-10-04T10:57:25.062Z,3.00
2022-10-04T11:00:22.307Z,4.60
2022-10-04T11:03:12.581Z,3.70
2022-10-04T11:05:52.199Z,3.97
2022-10-04T11:08:37.016Z,3.90
2022-10-04T11:11:34.677Z,4.40
2022-10-04T11:14:48.581Z,4.03
2022-10-04T11:17:27.549Z,4.00
2022-10-04T11:20:18.952Z,4.77
2022-10-04T11:23:22.729Z,3.47
2022-10-04T11:26:27.211Z,3.50
2022-10-04T11:29:10.275Z,3.20
2022-10-04T11:31:55.456Z,2.20
2022-10-04T11:34:59.551Z,2.30
2022-10-04T11:37:49.354Z,1.60
2022-10-04T11:41:03.934Z,2.40
2022-10-04T11:44:00.457Z,1.60
2022-10-04T11:47:02.785Z,1.60
2022-10-04T11:49:56.636Z,1.37
2022-10-04T11:52:26.254Z,1.87
2022-10-04T11:54:58.785Z,1.80
2022-10-04T11:57:57.145Z,1.80
2022-10-04T12:00:26.311Z,1.60
2022-10-04T12:03:28.126Z,1.63
2022-10-04T12:06:22.811Z,1.57
2022-10-04T12:08:55.858Z,1.30
2022-10-04T12:12:13.544Z,1.60
2022-10-04T12:15:12.030Z,2.00
2022-10-04T12:17:42.530Z,2.10
2022-10-04T12:20:40.096Z,2.60
2022-10-04T12:23:12.779Z,2.00
2022-10-04T12:26:19.376Z,1.73
2022-10-04T12:29:25.492Z,1.77
2022-10-04T12:32:00.108Z,1.70
2022-10-04T12:34:40.515Z,1.47
2022-10-04T12:37:22.740Z,2.10
2022-10-04T12:40:18.750Z,2.10
2022-10-04T12:43:04.850Z,1.97
2022-10-04T12:45:39.389Z,2.27
2022-10-04T12:48:14.357Z,1.50
2022-10-04T12:50:47.758Z,2.47
2022-10-04T12:53:31.876Z,2.10
2022-10-04T12:56:21.849Z,2.80
2022-10-04T12:59:07.051Z,2.00
2022-10-04T13:01:45.054Z,1.90
2022-10-04T13:04:32.458Z,1.90
2022-10-04T13:07:11.183Z,1.60
2022-10-04T13:10:24.615Z,1.43
2022-10-04T13:13:19.239Z,1.70
2022-10-04T13:18:52.444Z,1.60
2022-10-04T13:21:39.323Z,1.60
2022-10-04T13:24:32.377Z,1.20
2022-10-04T13:27:05.470Z,1.13
2022-10-04T13:29:54.577Z,1.93
2022-10-04T13:32:30.509Z,1.60
2022-10-04T13:35:15.475Z,1.10
2022-10-04T13:38:19.690Z,1.57
2022-10-04T13:40:56.054Z,1.30
2022-10-04T13:44:01.110Z,1.90
2022-10-04T13:46:52.209Z,1.50
2022-10-04T13:49:56.631Z,1.10
2022-10-04T13:53:04.131Z,1.23
2022-10-04T13:56:11.838Z,1.93
2022-10-04T13:59:00.876Z,1.43
2022-10-04T14:01:44.777Z,1.20
2022-10-04T14:04:39.551Z,1.73
2022-10-04T14:07:21.224Z,1.87
2022-10-04T14:10:15.750Z,1.20
2022-10-04T14:13:10.278Z,1.33
2022-10-04T14:16:00.361Z,1.27
2022-10-04T14:18:42.437Z,1.30
2022-10-04T14:21:40.147Z,1.20
2022-10-04T14:24:15.919Z,1.80
2022-10-04T14:27:04.327Z,1.60
2022-10-04T14:29:52.869Z,1.33
2022-10-04T14:32:38.267Z,2.10
2022-10-04T14:35:10.318Z,1.50
2022-10-04T14:37:49.268Z,1.60
2022-10-04T14:40:37.224Z,1.47
2022-10-04T14:43:17.310Z,1.40
2022-10-04T14:46:07.378Z,1.53
2022-10-04T14:48:48.966Z,1.77
2022-10-04T14:51:35.810Z,1.70
2022-10-04T14:54:09.723Z,1.60
2022-10-04T14:57:00.654Z,1.33
2022-10-04T14:59:58.784Z,1.47
2022-10-04T15:02:31.808Z,1.07
2022-10-04T15:05:08.229Z,1.33
2022-10-04T15:07:41.505Z,1.73
2022-10-04T15:10:35.763Z,2.27
2022-10-04T15:13:35.417Z,1.30
2022-10-04T15:16:32.486Z,1.47
2022-10-04T15:19:09.088Z,1.20
2022-10-04T15:22:12.675Z,2.33
2022-10-04T15:24:42.492Z,2.10
2022-10-04T15:27:33.983Z,1.60
2022-10-04T15:30:19.265Z,1.60
2022-10-04T15:33:12.164Z,1.60
2022-10-04T15:35:42.541Z,2.10
2022-10-04T15:38:29.697Z,1.60
2022-10-04T15:41:03.730Z,1.90
2022-10-04T15:44:12.771Z,1.47
2022-10-04T15:46:47.020Z,2.90
2022-10-04T15:49:55.302Z,2.30
2022-10-04T15:52:53.764Z,2.10
2022-10-04T15:55:34.061Z,2.20
2022-10-04T15:58:29.281Z,2.10
2022-10-04T16:01:24.297Z,2.20
2022-10-04T16:04:16.277Z,1.63
2022-10-04T16:07:07.952Z,1.50
2022-10-04T16:10:20.019Z,1.63
2022-10-04T16:12:46.765Z,1.70
2022-10-04T16:15:39.917Z,1.70
2022-10-04T16:18:35.182Z,1.73
2022-10-04T16:21:25.523Z,2.50
2022-10-04T16:24:17.862Z,2.00
2022-10-04T16:26:44.850Z,2.00
2022-10-04T16:29:33.760Z,1.80
2022-10-04T16:32:21.361Z,2.00
2022-10-04T16:34:57.345Z,1.97
2022-10-04T16:37:24.105Z,2.43
2022-10-04T16:40:00.125Z,1.40
2022-10-04T16:42:45.676Z,2.00
2022-10-04T16:45:12.407Z,2.10
2022-10-04T16:48:23.313Z,2.93
2022-10-04T16:51:05.441Z,3.03
2022-10-04T16:54:04.821Z,3.30
2022-10-04T16:56:57.276Z,3.00
2022-10-04T16:59:39.450Z,3.47
2022-10-04T17:02:36.413Z,3.70
2022-10-04T17:05:19.194Z,3.20
2022-10-04T17:08:05.367Z,2.70
2022-10-04T17:11:16.173Z,3.27
2022-10-04T17:14:01.898Z,3.60
2022-10-04T17:16:46.856Z,3.53
2022-10-04T17:19:29.420Z,5.40
2022-10-04T17:22:04.170Z,4.73
2022-10-04T17:24:33.800Z,4.77
2022-10-04T17:27:19.042Z,4.33
2022-10-04T17:30:04.400Z,4.60
2022-10-04T17:32:48.703Z,4.43
2022-10-04T17:35:47.707Z,4.77
2022-10-04T17:38:24.254Z,5.00
2022-10-04T17:41:03.667Z,6.30
2022-10-04T17:43:35.288Z,5.63
2022-10-04T17:46:30.676Z,7.53
2022-10-04T17:49:19.527Z,6.93
2022-10-04T17:52:07.823Z,6.03
2022-10-04T17:54:53.200Z,6.30
2022-10-04T17:57:42.328Z,5.87
2022-10-04T18:00:13.453Z,5.53
2022-10-04T18:02:55.537Z,6.37
2022-10-04T18:05:28.646Z,6.87
2022-10-04T18:08:17.844Z,7.43
2022-10-04T18:10:52.420Z,6.80
2022-10-04T18:13:49.925Z,7.70
2022-10-04T18:16:23.872Z,7.37
2022-10-04T18:18:51.068Z,7.83
2022-10-04T18:21:31.570Z,8.77
2022-10-04T18:24:19.386Z,7.87
2022-10-04T18:27:01.004Z,8.77
2022-10-04T18:29:43.335Z,8.70
2022-10-04T18:32:34.063Z,9.33
2022-10-04T18:35:21.769Z,9.37
2022-10-04T18:37:49.847Z,9.67
2022-10-04T18:40:31.990Z,13.83
2022-10-04T18:43:01.823Z,13.77
2022-10-04T18:45:32.614Z,14.83
2022-10-04T18:48:01.660Z,11.90
2022-10-04T18:50:44.912Z,11.83
2022-10-04T18:53:43.690Z,12.10
2022-10-04T18:56:12.507Z,11.47
2022-10-04T18:59:22.512Z,13.80
2022-10-04T19:02:24.195Z,14.23
2022-10-04T19:05:05.315Z,13.40
2022-10-04T19:07:53.460Z,14.57
2022-10-04T19:10:34.574Z,13.30
2022-10-04T19:13:03.871Z,12.30
2022-10-04T19:15:42.743Z,13.23
2022-10-04T19:18:27.708Z,13.90
2022-10-04T19:21:06.279Z,15.63
2022-10-04T19:23:38.985Z,14.07
2022-10-04T19:29:13.305Z,13.77
2022-10-04T19:32:07.860Z,12.37
2022-10-04T19:35:00.853Z,12.80
2022-10-04T19:37:37.857Z,12.53
2022-10-04T19:40:17.547Z,11.73
2022-10-04T19:43:03.876Z,12.43
2022-10-04T19:45:33.567Z,14.00
2022-10-04T19:48:08.690Z,13.63
2022-10-04T19:50:42.586Z,13.80
2022-10-04T19:53:52.173Z,13.20
2022-10-04T19:56:23.802Z,14.10
2022-10-04T19:59:04.687Z,12.50
2022-10-04T20:01:31.952Z,12.70
2022-10-04T20:04:17.225Z,11.63
2022-10-04T20:07:11.614Z,11.77
2022-10-04T20:09:41.059Z,11.93
2022-10-04T20:12:38.383Z,11.87
2022-10-04T20:15:27.987Z,12.40
2022-10-04T20:17:56.359Z,11.33
2022-10-04T20:20:38.691Z,12.03
2022-10-04T20:23:09.694Z,12.00
2022-10-04T20:25:45.845Z,13.10
2022-10-04T20:28:32.921Z,12.60
2022-10-04T20:31:01.981Z,12.23
2022-10-04T20:33:34.702Z,12.23
2022-10-04T20:36:09.481Z,12.83
2022-10-04T20:39:01.489Z,12.80
2022-10-04T20:41:28.064Z,14.87
2022-10-04T20:44:02.649Z,16.87
2022-10-04T20:46:38.402Z,12.60
2022-10-04T20:49:15.631Z,11.97
2022-10-04T20:51:49.856Z,13.00
2022-10-04T20:54:18.259Z,12.30
2022-10-04T20:56:49.851Z,14.03
2022-10-04T20:59:18.041Z,15.00
2022-10-04T21:02:05.004Z,13.50
2022-10-04T21:04:42.386Z,12.73
2022-10-04T21:07:14.339Z,12.00
2022-10-04T21:09:42.106Z,12.43
2022-10-04T21:12:34.080Z,11.60
2022-10-04T21:15:07.922Z,12.53
2022-10-04T21:17:36.867Z,11.90
2022-10-04T21:20:04.876Z,10.70
2022-10-04T21:22:33.878Z,11.00
2022-10-04T21:25:03.964Z,10.00
2022-10-04T21:27:31.960Z,11.27
2022-10-04T21:29:59.699Z,9.17
2022-10-04T21:32:27.554Z,10.27
2022-10-04T21:34:54.861Z,12.13
2022-10-04T21:37:21.797Z,10.60
2022-10-04T21:39:48.637Z,9.87
2022-10-04T21:42:15.406Z,10.13
2022-10-04T21:44:42.390Z,8.73
2022-10-04T21:47:10.199Z,11.27
2022-10-04T21:49:37.011Z,9.37
2022-10-04T21:52:03.882Z,7.83
2022-10-04T21:54:30.630Z,9.13
2022-10-04T21:56:57.507Z,9.70
2022-10-04T21:59:24.302Z,9.20
2022-10-04T22:01:51.840Z,7.93
2022-10-04T22:04:19.342Z,7.70
2022-10-04T22:06:46.302Z,8.27
2022-10-04T22:09:13.124Z,7.17
2022-10-04T22:11:39.934Z,7.30
2022-10-04T22:14:06.531Z,6.83
2022-10-04T22:16:33.249Z,6.53
2022-10-04T22:18:59.881Z,7.63
2022-10-04T22:21:26.610Z,5.67
2022-10-04T22:23:53.314Z,4.83
2022-10-04T22:26:22.007Z,4.20
2022-10-04T22:28:54.128Z,5.83
2022-10-04T22:31:28.733Z,5.03
2022-10-04T22:33:56.022Z,4.23
2022-10-04T22:36:38.392Z,3.93
2022-10-04T22:39:07.837Z,4.43
2022-10-04T22:41:38.958Z,3.60
2022-10-04T22:44:18.271Z,3.50
2022-10-04T22:46:48.841Z,3.90
2022-10-04T22:49:17.885Z,4.00
2022-10-04T22:51:47.368Z,3.33
2022-10-04T22:54:17.785Z,3.63
2022-10-04T22:56:44.947Z,4.40
2022-10-04T22:59:14.973Z,4.07
2022-10-04T23:01:43.502Z,3.17
2022-10-04T23:04:20.967Z,3.23
2022-10-04T23:06:48.386Z,3.20
2022-10-04T23:09:15.577Z,3.63
2022-10-04T23:11:42.741Z,3.53
2022-10-04T23:14:09.357Z,3.43
2022-10-04T23:16:37.007Z,3.70
2022-10-04T23:19:12.219Z,3.30
2022-10-04T23:21:41.441Z,3.10
2022-10-04T23:24:22.296Z,3.70
2022-10-04T23:26:55.846Z,3.43
2022-10-04T23:29:33.482Z,4.20
2022-10-04T23:32:09.026Z,3.97
2022-10-04T23:34:38.227Z,3.00
2022-10-04T23:37:17.791Z,3.00
2022-10-04T23:39:44.842Z,2.90
2022-10-04T23:42:20.554Z,3.57
2022-10-04T23:44:49.759Z,3.47
2022-10-04T23:47:19.623Z,3.00
2022-10-04T23:49:48.584Z,2.70
2022-10-04T23:52:18.158Z,3.30
2022-10-04T23:54:44.847Z,3.40
2022-10-04T23:57:20.145Z,3.30
2022-10-04T23:59:47.374Z,3.50
